KRTN/RTN METAR and TAF weather

Enter ICAO airport designator
Station Type Date Time Source
KRTN METAR 2019/05/21 20:53 UTC NOAA

KRTN 212053Z AUTO 29013G29KT 10SM CLR 17/M02 A2944 RMK AO2 PK WND 26033/2016 SLP918 T01721022 55009


Station Type Date Time Source
KRTN Decoded METAR 2019/05/21 20:53 UTC NOAA

Raton, Raton Municipal \ Crews Field Airport, NM, United States (KRTN) 36-44-31N 104-39-28W 1939M
May 21, 2019 - 04:53 PM EDT / 2019.05.21 2053 UTC
Wind: from the WNW (290 degrees) at 15 MPH (13 KT) gusting to 33 MPH (29 KT):0
Visibility: 10 mile(s):0
Sky conditions: clear
Temperature: 63.0 F (17.2 C)
Dew Point: 28.0 F (-2.2 C)
Relative Humidity: 26%
Pressure (altimeter): 29.44 in. Hg (996 hPa)
Pressure tendency: 0.03 inches (0.9 hPa) lower than three hours ago
ob: KRTN 212053Z AUTO 29013G29KT 10SM CLR 17/M02 A2944 RMK AO2 PK WND 26033/2016 SLP918 T01721022 55009
cycle: 21

Station Type Date Time Source
KRTN TAF UTC NOAA

Error!

Example: see airport list